Redwood City, CA (94065)

1:43 AM PDT on August 31, 2014 (GMT -0700)
Redwood Shores - Baltic Circle | Change Station
CLOSE
Current Station
Personal Weather Station
Location: Redwood City, CA
Elevation: -10 ft
Nearby Weather Stations

Elev -10 ft 37.54 °N, 122.24 °W | Updated 4 minutes ago

Clear
Clear
65.2 °F
Feels Like 65.2 °F
N
0.0
Wind Variable Wind from ESE
Gusts 1.0 mph

Today
High -- | Low -- °F
--% Chance of Precip.
Yesterday
High -- | Low -- °F
Precip. -- in
6:38 AM 7:39 PM
Waxing Crescent, 29% visible
Pressure 29.92 in
Visibility 10.0 miles
Clouds Clear
Dew Point 59 °F
Humidity 79%
Rainfall 0.00 in
Snow Depth Not available.
UV 0 out of 12
Pollen 7.70 out of 12
PM2.5 Good
Flu Activity Not available.
METAR KSQL 310830Z AUTO 21004KT 10SM CLR 19/14 A2992 RMK AO2

More Conditions Fewer Conditions

Pressure 29.92 in
Visibility 10.0 miles
Clouds Clear
Dew Point 59 °F
Humidity 79%
Rainfall 0.00 in
Snow Depth Not available.
UV 0 out of 12
Pollen 7.70 out of 12
PM2.5 Good
Flu Activity Not available.
METAR KSQL 310830Z AUTO 21004KT 10SM CLR 19/14 A2992 RMK AO2

More Conditions Fewer Conditions

10-Day Weather Forecast

Almanac

Astronomy

Aug. 31, 2014 Rise Set
Actual Time 6:38 AM PDT 7:39 PM PDT
Civil Twilight 6:11 AM PDT 8:06 PM PDT
Nautical Twilight 5:39 AM PDT 8:37 PM PDT
Astronomical Twilight 5:06 AM PDT 9:10 PM PDT
Moon 12:23 PM PDT 11:05 PM PDT
Length of Visible Light 13h 54m
Length of Day
13h 00m
Tomorrow will be 2m 18s shorter.
Waxing Crescent, 29% of the Moon is Illuminated
Today
Waxing Crescent
Sep 2
First Quarter
Sep 8
Full
Sep 15
Last Quarter
Sep 24
New

Today's Extremes

State Highs State Lows

Community

WunderPhotos

Upload Photos

1,748,826 photos uploaded!

Nearby

Air Quality

  Air Quality AQ Index Pollutant
Yesterday Good
PM2.5
Yesterday Good
OZONE
Current Good
PM2.5
Sunday Good
OZONE
Monday Good
OZONE
Tuesday Good
PM2.5
Wednesday Good
OZONE

Snow Depth

Station Depth Elevation
Blue Lakes 0 in 8000 ft
Forestdale Creek 0 in 8029 ft
Echo Peak 1 in 7800 ft
Leavitt Lake 1 in 9400 ft
Rubicon #2 0 in 7500 ft

Earthquake Activity

City Distance Mag. Time & Date
Gonzales, California 83 miles 2.7 9:48 PM PDT
2014-08-30
Ridgemark, California 77 miles 3.4 4:32 PM PDT
2014-08-29
The Geysers, California 94 miles 2.7 2:53 PM PDT
2014-08-29
Ridgemark, California 77 miles 3.0 2:44 PM PDT
2014-08-29
Minimum magnitude displayed is 2.5.

Coastal Water Temperatures

Place Temperature
No Stations Reporting

Nearby Weather Stations